createdAt,value
2018-07-16T00:00:11.841Z,100383.48
2018-07-16T00:01:17.816Z,100377.17
2018-07-16T00:02:23.811Z,100380.88
2018-07-16T00:03:29.806Z,100377.97
2018-07-16T00:04:35.779Z,100381.98
2018-07-16T00:05:41.716Z,100380.53
2018-07-16T00:06:47.680Z,100371.30
2018-07-16T00:07:53.258Z,100374.85
2018-07-16T00:08:59.522Z,100373.84
2018-07-16T00:10:04.771Z,100376.75
2018-07-16T00:11:10.715Z,100376.45
2018-07-16T00:12:21.802Z,100380.72
2018-07-16T00:13:28.164Z,100374.70
2018-07-16T00:14:34.396Z,100370.72
2018-07-16T00:15:40.620Z,100373.46
2018-07-16T00:16:46.574Z,100374.83
2018-07-16T00:17:52.787Z,100373.20
2018-07-16T00:18:59.059Z,100377.86
2018-07-16T00:20:04.364Z,100375.21
2018-07-16T00:21:10.301Z,100377.70
2018-07-16T00:22:15.949Z,100371.89
2018-07-16T00:23:22.080Z,100368.91
2018-07-16T00:24:27.697Z,100376.92
2018-07-16T00:25:33.831Z,100372.02
2018-07-16T00:26:39.805Z,100368.00
2018-07-16T00:27:46.067Z,100365.91
2018-07-16T00:28:52.061Z,100366.03
2018-07-16T00:29:58.307Z,100369.16
2018-07-16T00:31:04.581Z,100373.09
2018-07-16T00:32:10.226Z,100368.91
2018-07-16T00:33:16.551Z,100369.45
2018-07-16T00:34:22.564Z,100373.30
2018-07-16T00:35:28.565Z,100372.66
2018-07-16T00:36:34.194Z,100365.82
2018-07-16T00:37:40.161Z,100374.20
2018-07-16T00:38:46.148Z,100374.67
2018-07-16T00:39:52.145Z,100369.75
2018-07-16T00:40:58.139Z,100374.14
2018-07-16T00:42:04.100Z,100373.50
2018-07-16T00:43:10.328Z,100370.27
2018-07-16T00:44:16.332Z,100375.64
2018-07-16T00:45:22.303Z,100367.70
2018-07-16T00:46:28.241Z,100371.97
2018-07-16T00:47:34.189Z,100373.55
2018-07-16T00:48:40.490Z,100368.68
2018-07-16T00:49:46.507Z,100368.04
2018-07-16T00:50:52.470Z,100364.23
2018-07-16T00:51:58.102Z,100365.17
2018-07-16T00:53:03.694Z,100366.92
2018-07-16T00:54:10.074Z,100368.72
2018-07-16T00:55:15.997Z,100369.73
2018-07-16T00:56:22.064Z,100366.11
2018-07-16T00:57:28.210Z,100364.56
2018-07-16T00:58:34.624Z,100363.63
2018-07-16T00:59:40.633Z,100364.73
2018-07-16T01:00:46.569Z,100367.77
2018-07-16T01:01:51.463Z,100366.05
2018-07-16T01:02:58.494Z,100367.67
2018-07-16T01:04:06.417Z,100368.22
2018-07-16T01:05:13.272Z,100370.88
2018-07-16T01:06:18.935Z,100364.78
2018-07-16T01:07:24.899Z,100362.80
2018-07-16T01:08:30.870Z,100364.14
2018-07-16T01:09:37.143Z,100364.92
2018-07-16T01:10:43.119Z,100356.39
2018-07-16T01:11:49.082Z,100355.03
2018-07-16T01:12:55.284Z,100355.72
2018-07-16T01:14:01.275Z,100357.00
2018-07-16T01:15:07.222Z,100358.42
2018-07-16T01:16:13.201Z,100359.12
2018-07-16T01:17:19.147Z,100358.81
2018-07-16T01:18:25.135Z,100359.91
2018-07-16T01:19:33.225Z,100358.80
2018-07-16T01:20:39.199Z,100360.39
2018-07-16T01:21:45.161Z,100366.12
2018-07-16T01:22:51.328Z,100358.97
2018-07-16T01:23:57.278Z,100361.91
2018-07-16T01:25:03.362Z,100362.92
2018-07-16T01:26:09.016Z,100361.08
2018-07-16T01:27:15.023Z,100357.63
2018-07-16T01:28:20.783Z,100359.00
2018-07-16T01:29:26.772Z,100357.94
2018-07-16T01:30:32.767Z,100359.06
2018-07-16T01:31:38.784Z,100357.06
2018-07-16T01:32:44.877Z,100358.80
2018-07-16T01:33:50.884Z,100358.91
2018-07-16T01:34:56.872Z,100355.16
2018-07-16T01:36:02.829Z,100354.56
2018-07-16T01:37:08.787Z,100357.44
2018-07-16T01:38:14.763Z,100359.45
2018-07-16T01:39:21.036Z,100353.95
2018-07-16T01:40:27.046Z,100351.73
2018-07-16T01:41:33.059Z,100351.59
2018-07-16T01:42:39.055Z,100351.33
2018-07-16T01:43:45.047Z,100354.92
2018-07-16T01:44:51.072Z,100353.86
2018-07-16T01:45:57.023Z,100353.52
2018-07-16T01:47:03.009Z,100354.59
2018-07-16T01:48:08.955Z,100351.75
2018-07-16T01:49:14.929Z,100350.55
2018-07-16T01:50:20.935Z,100350.62
2018-07-16T01:51:31.848Z,100348.80
2018-07-16T01:52:37.857Z,100349.72
2018-07-16T01:53:44.073Z,100352.25
2018-07-16T01:54:50.371Z,100347.14
2018-07-16T01:55:56.347Z,100346.09
2018-07-16T01:57:02.403Z,100343.98
2018-07-16T01:58:08.382Z,100353.19
2018-07-16T01:59:14.440Z,100348.69
2018-07-16T02:00:20.708Z,100351.76
2018-07-16T02:01:26.324Z,100355.52
2018-07-16T02:02:32.364Z,100357.09
2018-07-16T02:03:38.403Z,100356.14
2018-07-16T02:04:44.391Z,100360.64
2018-07-16T02:05:50.367Z,100358.66
2018-07-16T02:06:56.346Z,100355.94
2018-07-16T02:08:02.338Z,100354.49
2018-07-16T02:09:08.354Z,100355.61
2018-07-16T02:10:15.300Z,100351.95
2018-07-16T02:11:21.271Z,100356.50
2018-07-16T02:12:27.274Z,100361.99
2018-07-16T02:13:33.283Z,100358.35
2018-07-16T02:14:39.279Z,100358.39
2018-07-16T02:15:45.268Z,100361.63
2018-07-16T02:16:50.887Z,100358.48
2018-07-16T02:17:57.162Z,100359.81
2018-07-16T02:19:03.143Z,100362.73
2018-07-16T02:20:09.140Z,100357.45
2018-07-16T02:21:15.176Z,100359.09
2018-07-16T02:22:20.808Z,100360.09
2018-07-16T02:23:26.809Z,100360.08
2018-07-16T02:24:32.805Z,100363.73
2018-07-16T02:25:38.839Z,100361.29
2018-07-16T02:26:44.854Z,100360.55
2018-07-16T02:27:50.836Z,100364.15
2018-07-16T02:28:56.916Z,100361.00
2018-07-16T02:30:02.974Z,100359.36
2018-07-16T02:31:08.952Z,100364.00
2018-07-16T02:32:14.963Z,100364.50
2018-07-16T02:33:21.256Z,100356.24
2018-07-16T02:34:27.267Z,100355.94
2018-07-16T02:35:33.055Z,100356.77
2018-07-16T02:36:39.614Z,100359.27
2018-07-16T02:37:45.549Z,100358.80
2018-07-16T02:38:50.865Z,100364.65
2018-07-16T02:39:56.921Z,100367.32
2018-07-16T02:41:02.893Z,100359.59
2018-07-16T02:42:08.864Z,100366.13
2018-07-16T02:43:14.867Z,100366.59
2018-07-16T02:44:20.845Z,100368.52
2018-07-16T02:45:26.864Z,100365.17
2018-07-16T02:46:32.905Z,100362.61
2018-07-16T02:47:38.997Z,100364.08
2018-07-16T02:48:45.282Z,100357.06
2018-07-16T02:49:51.282Z,100369.45
2018-07-16T02:50:57.334Z,100366.97
2018-07-16T02:52:03.321Z,100363.27
2018-07-16T02:53:09.291Z,100364.12
2018-07-16T02:54:15.579Z,100357.56
2018-07-16T02:55:21.624Z,100359.59
2018-07-16T02:56:27.764Z,100355.25
2018-07-16T02:57:33.869Z,100353.17
2018-07-16T02:58:39.918Z,100347.58
2018-07-16T02:59:45.898Z,100356.23
2018-07-16T03:00:51.973Z,100350.56
2018-07-16T03:01:57.974Z,100353.73
2018-07-16T03:03:03.881Z,100352.09
2018-07-16T03:04:10.157Z,100354.62
2018-07-16T03:05:16.143Z,100357.65
2018-07-16T03:06:22.169Z,100355.45
2018-07-16T03:07:28.198Z,100355.65
2018-07-16T03:08:34.192Z,100349.14
2018-07-16T03:09:40.400Z,100349.23
2018-07-16T03:10:46.423Z,100347.69
2018-07-16T03:11:52.069Z,100345.99
2018-07-16T03:12:58.080Z,100348.44
2018-07-16T03:14:04.092Z,100346.19
2018-07-16T03:15:09.750Z,100348.91
2018-07-16T03:16:15.733Z,100346.13
2018-07-16T03:17:21.754Z,100348.92
2018-07-16T03:18:27.767Z,100344.44
2018-07-16T03:19:33.810Z,100340.76
2018-07-16T03:20:39.866Z,100340.88
2018-07-16T03:21:45.876Z,100344.80
2018-07-16T03:22:51.879Z,100342.70
2018-07-16T03:23:57.831Z,100338.72
2018-07-16T03:25:03.859Z,100341.17
2018-07-16T03:26:09.946Z,100340.23
2018-07-16T03:27:15.922Z,100343.30
2018-07-16T03:28:21.945Z,100343.91
2018-07-16T03:29:27.978Z,100341.91
2018-07-16T03:30:34.069Z,100346.68
2018-07-16T03:31:40.058Z,100340.55
2018-07-16T03:32:46.344Z,100346.60
2018-07-16T03:33:52.341Z,100344.67
2018-07-16T03:34:58.363Z,100340.59
2018-07-16T03:36:04.403Z,100337.08
2018-07-16T03:37:11.569Z,100340.06
2018-07-16T03:38:17.568Z,100345.47
2018-07-16T03:39:23.617Z,100344.30
2018-07-16T03:40:29.647Z,100346.36
2018-07-16T03:41:35.718Z,100348.68
2018-07-16T03:42:41.722Z,100345.66
2018-07-16T03:43:47.723Z,100354.63
2018-07-16T03:44:53.642Z,100349.40
2018-07-16T03:45:59.278Z,100351.76
2018-07-16T03:47:05.244Z,100347.41
2018-07-16T03:48:11.250Z,100350.62
2018-07-16T03:49:17.257Z,100346.13
2018-07-16T03:50:23.237Z,100343.73
2018-07-16T03:51:29.216Z,100348.69
2018-07-16T03:52:35.230Z,100345.13
2018-07-16T03:53:41.191Z,100348.23
2018-07-16T03:54:47.414Z,100346.44
2018-07-16T03:55:53.514Z,100351.52
2018-07-16T03:56:59.697Z,100349.74
2018-07-16T03:58:05.699Z,100349.24
2018-07-16T03:59:12.208Z,100348.08
2018-07-16T04:00:18.486Z,100355.42
2018-07-16T04:01:24.496Z,100351.75
2018-07-16T04:02:30.490Z,100357.80
2018-07-16T04:03:36.495Z,100358.74
2018-07-16T04:04:42.485Z,100356.38
2018-07-16T04:05:48.527Z,100361.58
2018-07-16T04:06:54.163Z,100361.11
2018-07-16T04:08:00.177Z,100358.27
2018-07-16T04:09:06.154Z,100358.98
2018-07-16T04:10:11.800Z,100351.83
2018-07-16T04:11:17.768Z,100355.00
2018-07-16T04:12:23.392Z,100357.89
2018-07-16T04:13:29.337Z,100358.13
2018-07-16T04:14:35.308Z,100356.48
2018-07-16T04:15:41.298Z,100354.43
2018-07-16T04:16:46.947Z,100354.34
2018-07-16T04:17:52.928Z,100353.80
2018-07-16T04:18:58.938Z,100354.18
2018-07-16T04:20:04.893Z,100352.62
2018-07-16T04:21:11.819Z,100355.30
2018-07-16T04:22:17.455Z,100353.53
2018-07-16T04:23:23.404Z,100361.77
2018-07-16T04:24:29.393Z,100355.52
2018-07-16T04:25:35.347Z,100352.27
2018-07-16T04:26:41.359Z,100355.10
2018-07-16T04:27:48.483Z,100353.66
2018-07-16T04:28:54.491Z,100361.49
2018-07-16T04:30:00.662Z,100350.98
2018-07-16T04:31:06.706Z,100354.73
2018-07-16T04:32:13.212Z,100351.19
2018-07-16T04:33:19.268Z,100349.63
2018-07-16T04:34:25.242Z,100355.70
2018-07-16T04:35:31.198Z,100347.88
2018-07-16T04:36:37.194Z,100348.77
2018-07-16T04:37:43.159Z,100346.73
2018-07-16T04:38:49.101Z,100347.59
2018-07-16T04:39:55.159Z,100344.78
2018-07-16T04:41:01.435Z,100347.81
2018-07-16T04:42:07.044Z,100352.42
2018-07-16T04:43:13.016Z,100345.61
2018-07-16T04:44:18.994Z,100344.20
2018-07-16T04:45:25.008Z,100344.17
2018-07-16T04:46:31.031Z,100343.17
2018-07-16T04:47:37.090Z,100343.09
2018-07-16T04:48:43.066Z,100344.93
2018-07-16T04:49:49.045Z,100343.52
2018-07-16T04:50:55.042Z,100345.40
2018-07-16T04:52:01.078Z,100342.89
2018-07-16T04:53:06.772Z,100339.25
2018-07-16T04:54:12.814Z,100342.02
2018-07-16T04:55:18.800Z,100333.39
2018-07-16T04:56:24.818Z,100340.57
2018-07-16T04:57:30.805Z,100342.44
2018-07-16T04:58:36.797Z,100340.27
2018-07-16T04:59:42.473Z,100341.73
2018-07-16T05:00:48.419Z,100342.07
2018-07-16T05:01:54.652Z,100345.27
2018-07-16T05:03:00.950Z,100342.45
2018-07-16T05:04:06.329Z,100342.94
2018-07-16T05:05:12.432Z,100345.70
2018-07-16T05:06:18.528Z,100340.70
2018-07-16T05:07:24.619Z,100343.93
2018-07-16T05:08:30.576Z,100336.77
2018-07-16T05:09:36.844Z,100336.29
2018-07-16T05:10:42.922Z,100339.86
2018-07-16T05:11:48.958Z,100341.23
2018-07-16T05:12:55.266Z,100341.47
2018-07-16T05:14:01.271Z,100338.36
2018-07-16T05:15:07.541Z,100340.87
2018-07-16T05:16:13.538Z,100337.20
2018-07-16T05:17:19.721Z,100339.11
2018-07-16T05:18:26.351Z,100338.31
2018-07-16T05:19:32.453Z,100343.16
2018-07-16T05:20:38.699Z,100340.85
2018-07-16T05:21:44.787Z,100334.41
2018-07-16T05:22:50.783Z,100340.57
2018-07-16T05:23:56.754Z,100340.39
2018-07-16T05:25:02.573Z,100340.96
2018-07-16T05:26:08.590Z,100344.42
2018-07-16T05:27:14.257Z,100339.51
2018-07-16T05:28:20.549Z,100342.27
2018-07-16T05:29:26.574Z,100338.75
2018-07-16T05:30:32.579Z,100338.58
2018-07-16T05:31:38.619Z,100344.84
2018-07-16T05:32:44.974Z,100336.94
2018-07-16T05:33:51.075Z,100334.33
2018-07-16T05:34:57.086Z,100337.84
2018-07-16T05:36:03.106Z,100337.84
2018-07-16T05:37:09.100Z,100338.03
2018-07-16T05:38:15.125Z,100338.17
2018-07-16T05:39:21.377Z,100338.43
2018-07-16T05:40:27.329Z,100333.45
2018-07-16T05:41:33.449Z,100335.58
2018-07-16T05:42:39.466Z,100334.12
2018-07-16T05:43:45.459Z,100337.85
2018-07-16T05:44:51.477Z,100332.54
2018-07-16T05:45:57.464Z,100331.64
2018-07-16T05:47:03.516Z,100330.77
2018-07-16T05:48:09.783Z,100327.84
2018-07-16T05:49:15.813Z,100332.31
2018-07-16T05:50:21.817Z,100334.51
2018-07-16T05:51:27.873Z,100330.88
2018-07-16T05:52:33.933Z,100329.86
2018-07-16T05:53:39.976Z,100322.91
2018-07-16T05:54:45.931Z,100324.67
2018-07-16T05:55:51.904Z,100322.59
2018-07-16T05:56:57.934Z,100321.75
2018-07-16T05:58:04.220Z,100322.91
2018-07-16T05:59:10.247Z,100322.30
2018-07-16T06:00:16.264Z,100321.20
2018-07-16T06:01:22.237Z,100319.52
2018-07-16T06:02:27.898Z,100322.59
2018-07-16T06:03:34.088Z,100321.51
2018-07-16T06:04:40.924Z,100317.73
2018-07-16T06:05:47.381Z,100319.17
2018-07-16T06:06:53.398Z,100324.61
2018-07-16T06:07:59.365Z,100323.31
2018-07-16T06:09:05.007Z,100324.72
2018-07-16T06:10:11.000Z,100317.62
2018-07-16T06:11:16.692Z,100327.10
2018-07-16T06:12:22.729Z,100323.10
2018-07-16T06:13:28.734Z,100321.44
2018-07-16T06:14:34.770Z,100317.84
2018-07-16T06:15:40.769Z,100319.36
2018-07-16T06:16:46.835Z,100316.09
2018-07-16T06:17:53.115Z,100322.66
2018-07-16T06:18:59.102Z,100317.12
2018-07-16T06:20:04.371Z,100320.71
2018-07-16T06:21:10.010Z,100313.47
2018-07-16T06:22:16.051Z,100318.88
2018-07-16T06:23:22.072Z,100316.53
2018-07-16T06:24:28.064Z,100318.86
2018-07-16T06:25:34.202Z,100319.24
2018-07-16T06:26:40.201Z,100322.58
2018-07-16T06:27:46.279Z,100319.61
2018-07-16T06:28:52.268Z,100314.92
2018-07-16T06:29:58.286Z,100318.00
2018-07-16T06:31:03.593Z,100319.88
2018-07-16T06:32:09.043Z,100319.41
2018-07-16T06:33:15.038Z,100322.08
2018-07-16T06:34:21.026Z,100317.96
2018-07-16T06:35:26.709Z,100318.63
2018-07-16T06:36:32.714Z,100322.54
2018-07-16T06:37:38.391Z,100323.02
2018-07-16T06:38:44.389Z,100322.59
2018-07-16T06:39:50.670Z,100326.16
2018-07-16T06:40:56.561Z,100318.66
2018-07-16T06:42:02.610Z,100315.91
2018-07-16T06:43:08.300Z,100316.39
2018-07-16T06:44:14.316Z,100314.64
2018-07-16T06:45:19.947Z,100309.36
2018-07-16T06:46:25.904Z,100314.25
2018-07-16T06:47:31.932Z,100310.63
2018-07-16T06:48:38.059Z,100305.30
2018-07-16T06:49:44.605Z,100308.78
2018-07-16T06:50:51.061Z,100305.91
2018-07-16T06:51:57.268Z,100313.98
2018-07-16T06:53:03.730Z,100309.97
2018-07-16T06:54:10.353Z,100309.41
2018-07-16T06:55:16.723Z,100307.80
2018-07-16T06:56:23.373Z,100311.45
2018-07-16T06:57:29.759Z,100309.02
2018-07-16T06:58:35.427Z,100312.53
2018-07-16T06:59:41.991Z,100304.82
2018-07-16T07:00:48.190Z,100310.28
2018-07-16T07:01:54.434Z,100308.95
2018-07-16T07:03:00.786Z,100309.53
2018-07-16T07:04:13.092Z,100308.39
2018-07-16T07:05:19.306Z,100315.93
2018-07-16T07:06:25.689Z,100313.91
2018-07-16T07:07:32.170Z,100312.86
2018-07-16T07:08:38.720Z,100310.63
2018-07-16T07:09:44.783Z,100311.37
2018-07-16T07:10:50.784Z,100310.72
2018-07-16T07:11:59.811Z,100303.89
2018-07-16T07:13:06.361Z,100306.95
2018-07-16T07:14:12.761Z,100308.53
2018-07-16T07:15:19.679Z,100309.73
2018-07-16T07:16:26.177Z,100306.92
2018-07-16T07:17:32.570Z,100307.41
2018-07-16T07:18:39.074Z,100307.17
2018-07-16T07:19:45.207Z,100304.77
2018-07-16T07:20:51.668Z,100303.30
2018-07-16T07:21:57.889Z,100308.13
2018-07-16T07:23:04.787Z,100301.34
2018-07-16T07:24:11.213Z,100300.06
2018-07-16T07:25:17.991Z,100300.48
2018-07-16T07:26:24.157Z,100296.25
2018-07-16T07:27:30.913Z,100296.08
2018-07-16T07:28:37.272Z,100295.75
2018-07-16T07:29:45.044Z,100303.02
2018-07-16T07:30:51.621Z,100293.30
2018-07-16T07:31:57.698Z,100295.92
2018-07-16T07:33:04.629Z,100292.47
2018-07-16T07:34:10.732Z,100297.85
2018-07-16T07:35:17.118Z,100297.72
2018-07-16T07:36:23.795Z,100296.25
2018-07-16T07:37:29.920Z,100286.30
2018-07-16T07:38:36.340Z,100295.81
2018-07-16T07:39:42.802Z,100293.77
2018-07-16T07:40:49.133Z,100294.26
2018-07-16T07:41:55.497Z,100296.55
2018-07-16T07:43:01.807Z,100287.58
2018-07-16T07:44:07.896Z,100284.73
2018-07-16T07:45:14.206Z,100281.56
2018-07-16T07:46:20.610Z,100286.91
2018-07-16T07:47:27.041Z,100285.77
2018-07-16T07:48:33.812Z,100285.34
2018-07-16T07:49:40.545Z,100287.17
2018-07-16T07:50:46.658Z,100283.70
2018-07-16T07:51:53.180Z,100289.73
2018-07-16T07:52:59.220Z,100281.89
2018-07-16T07:54:05.569Z,100288.63
2018-07-16T07:55:12.020Z,100285.47
2018-07-16T07:56:18.912Z,100287.41
2018-07-16T07:57:25.856Z,100291.79
2018-07-16T07:58:32.758Z,100284.63
2018-07-16T07:59:38.800Z,100292.05
2018-07-16T08:00:44.815Z,100288.15
2018-07-16T08:01:50.802Z,100290.41
2018-07-16T08:02:56.865Z,100286.39
2018-07-16T08:04:02.884Z,100286.56
2018-07-16T08:05:08.563Z,100286.19
2018-07-16T08:06:14.232Z,100287.23
2018-07-16T08:07:20.012Z,100280.50
2018-07-16T08:08:26.052Z,100289.86
2018-07-16T08:09:31.739Z,100286.70
2018-07-16T08:10:37.796Z,100287.91
2018-07-16T08:11:43.797Z,100279.64
2018-07-16T08:12:49.416Z,100284.48
2018-07-16T08:13:55.397Z,100278.72
2018-07-16T08:15:01.544Z,100279.94
2018-07-16T08:16:07.096Z,100270.98
2018-07-16T08:17:13.141Z,100271.81
2018-07-16T08:18:19.416Z,100277.37
2018-07-16T08:19:25.353Z,100276.98
2018-07-16T08:20:31.566Z,100274.90
2018-07-16T08:21:37.519Z,100270.34
2018-07-16T08:22:43.548Z,100274.84
2018-07-16T08:23:49.655Z,100275.79
2018-07-16T08:24:55.344Z,100277.20
2018-07-16T08:26:01.039Z,100271.77
2018-07-16T08:27:06.748Z,100275.41
2018-07-16T08:28:12.493Z,100277.87
2018-07-16T08:29:18.406Z,100271.11
2018-07-16T08:30:24.103Z,100278.47
2018-07-16T08:31:30.165Z,100275.52
2018-07-16T08:32:36.165Z,100273.94
2018-07-16T08:33:41.931Z,100273.63
2018-07-16T08:34:48.140Z,100277.12
2018-07-16T08:35:54.147Z,100273.09
2018-07-16T08:36:59.895Z,100271.58
2018-07-16T08:38:05.977Z,100274.23
2018-07-16T08:39:12.348Z,100276.23
2018-07-16T08:40:18.141Z,100269.81
2018-07-16T08:41:23.997Z,100276.23
2018-07-16T08:42:29.958Z,100272.91
2018-07-16T08:43:35.675Z,100273.97
2018-07-16T08:44:41.371Z,100270.70
2018-07-16T08:45:47.069Z,100276.55
2018-07-16T08:46:53.062Z,100274.27
2018-07-16T08:47:59.071Z,100274.22
2018-07-16T08:49:04.372Z,100273.97
2018-07-16T08:50:10.331Z,100277.84
2018-07-16T08:51:24.604Z,100272.06
2018-07-16T08:52:42.125Z,100270.08
2018-07-16T08:54:03.545Z,100269.73
2018-07-16T08:55:23.832Z,100273.09
2018-07-16T08:56:42.891Z,100267.37
2018-07-16T08:58:05.003Z,100269.17
2018-07-16T08:59:24.238Z,100272.14
2018-07-16T09:00:44.249Z,100271.25
2018-07-16T09:02:03.597Z,100270.80
2018-07-16T09:03:22.924Z,100272.17
2018-07-16T09:04:42.641Z,100271.34
2018-07-16T09:06:05.177Z,100270.03
2018-07-16T09:07:24.818Z,100262.55
2018-07-16T09:08:45.343Z,100271.02
2018-07-16T09:10:04.670Z,100272.55
2018-07-16T09:11:24.768Z,100269.66
2018-07-16T09:12:43.624Z,100276.14
2018-07-16T09:14:02.676Z,100270.08
2018-07-16T09:15:21.355Z,100269.96
2018-07-16T09:16:35.988Z,100268.17
2018-07-16T09:17:41.970Z,100271.73
2018-07-16T09:18:47.608Z,100277.16
2018-07-16T09:19:53.281Z,100274.87
2018-07-16T09:20:58.593Z,100269.52
2018-07-16T09:22:03.909Z,100271.63
2018-07-16T09:23:09.534Z,100279.16
2018-07-16T09:24:15.506Z,100268.84
2018-07-16T09:25:21.494Z,100273.53
2018-07-16T09:26:27.339Z,100271.59
2018-07-16T09:27:33.030Z,100267.72
2018-07-16T09:28:38.733Z,100268.88
2018-07-16T09:29:45.413Z,100271.33
2018-07-16T09:30:51.184Z,100273.84
2018-07-16T09:31:57.158Z,100273.50
2018-07-16T09:33:02.825Z,100263.80
2018-07-16T09:34:08.409Z,100268.33
2018-07-16T09:35:14.074Z,100272.70
2018-07-16T09:36:20.044Z,100265.16
2018-07-16T09:37:25.759Z,100270.18
2018-07-16T09:38:31.546Z,100269.84
2018-07-16T09:39:37.441Z,100269.92
2018-07-16T09:40:42.737Z,100267.84
2018-07-16T09:41:48.449Z,100261.05
2018-07-16T09:42:54.151Z,100263.23
2018-07-16T09:43:59.531Z,100259.11
2018-07-16T09:45:05.241Z,100255.91
2018-07-16T09:46:10.908Z,100259.67
2018-07-16T09:47:16.676Z,100261.20
2018-07-16T09:48:22.334Z,100261.70
2018-07-16T09:49:28.032Z,100260.11
2018-07-16T09:50:33.731Z,100255.58
2018-07-16T09:51:39.416Z,100257.44
2018-07-16T09:52:45.084Z,100254.75
2018-07-16T09:53:50.767Z,100256.25
2018-07-16T09:54:56.475Z,100252.80
2018-07-16T09:56:02.479Z,100248.42
2018-07-16T09:57:08.336Z,100249.94
2018-07-16T09:58:14.022Z,100245.98
2018-07-16T09:59:19.363Z,100243.06
2018-07-16T10:00:24.484Z,100242.89
2018-07-16T10:01:29.915Z,100241.78
2018-07-16T10:02:35.562Z,100238.70
2018-07-16T10:03:41.225Z,100239.09
2018-07-16T10:04:46.686Z,100236.84
2018-07-16T10:05:52.394Z,100239.10
2018-07-16T10:06:58.108Z,100238.59
2018-07-16T10:08:03.788Z,100236.14
2018-07-16T10:09:09.511Z,100234.86
2018-07-16T10:10:15.261Z,100231.28
2018-07-16T10:11:20.902Z,100223.65
2018-07-16T10:12:26.567Z,100225.48
2018-07-16T10:13:32.217Z,100229.06
2018-07-16T10:14:37.944Z,100230.34
2018-07-16T10:15:43.981Z,100229.34
2018-07-16T10:16:49.706Z,100220.80
2018-07-16T10:17:55.375Z,100222.69
2018-07-16T10:19:01.056Z,100219.24
2018-07-16T10:20:06.443Z,100219.24
2018-07-16T10:21:12.361Z,100217.30
2018-07-16T10:22:18.055Z,100215.25
2018-07-16T10:23:23.733Z,100218.20
2018-07-16T10:24:29.449Z,100222.54
2018-07-16T10:25:35.102Z,100221.61
2018-07-16T10:26:40.823Z,100222.98
2018-07-16T10:27:46.174Z,100220.13
2018-07-16T10:28:52.088Z,100215.76
2018-07-16T10:29:57.796Z,100213.73
2018-07-16T10:31:03.131Z,100217.53
2018-07-16T10:32:08.895Z,100212.08
2018-07-16T10:33:14.610Z,100213.33
2018-07-16T10:34:20.271Z,100211.80
2018-07-16T10:35:25.993Z,100211.72
2018-07-16T10:36:31.704Z,100211.67
2018-07-16T10:37:37.420Z,100214.03
2018-07-16T10:38:43.153Z,100205.36
2018-07-16T10:39:48.853Z,100202.70
2018-07-16T10:40:54.525Z,100207.90
2018-07-16T10:42:00.184Z,100204.85
2018-07-16T10:43:05.150Z,100204.84
2018-07-16T10:44:10.793Z,100202.30
2018-07-16T10:45:16.477Z,100202.07
2018-07-16T10:46:22.191Z,100199.43
2018-07-16T10:47:27.495Z,100200.29
2018-07-16T10:48:33.140Z,100201.48
2018-07-16T10:49:38.853Z,100204.00
2018-07-16T10:50:44.796Z,100199.41
2018-07-16T10:51:50.127Z,100198.46
2018-07-16T10:52:56.103Z,100198.20
2018-07-16T10:54:01.507Z,100199.56
2018-07-16T10:55:07.491Z,100197.53
2018-07-16T10:56:13.173Z,100199.16
2018-07-16T10:57:18.300Z,100195.69
2018-07-16T10:58:24.486Z,100196.23
2018-07-16T10:59:31.089Z,100197.72
2018-07-16T11:00:37.134Z,100198.47
2018-07-16T11:01:42.465Z,100201.43
2018-07-16T11:02:47.801Z,100194.38
2018-07-16T11:03:53.469Z,100191.84
2018-07-16T11:04:59.179Z,100191.92
2018-07-16T11:06:04.328Z,100192.00
2018-07-16T11:07:10.020Z,100195.22
2018-07-16T11:08:15.762Z,100190.16
2018-07-16T11:09:21.481Z,100192.09
2018-07-16T11:10:27.211Z,100193.61
2018-07-16T11:11:32.917Z,100189.42
2018-07-16T11:12:38.895Z,100185.69
2018-07-16T11:13:44.620Z,100190.73
2018-07-16T11:14:49.987Z,100184.07
2018-07-16T11:15:55.690Z,100185.84
2018-07-16T11:17:01.368Z,100186.16
2018-07-16T11:18:06.639Z,100174.77
2018-07-16T11:19:12.306Z,100178.45
2018-07-16T11:20:17.995Z,100178.98
2018-07-16T11:21:23.943Z,100174.80
2018-07-16T11:22:29.612Z,100171.02
2018-07-16T11:23:35.583Z,100171.86
2018-07-16T11:24:41.249Z,100166.27
2018-07-16T11:25:46.757Z,100164.27
2018-07-16T11:26:52.396Z,100169.97
2018-07-16T11:27:58.078Z,100165.64
2018-07-16T11:29:03.743Z,100163.92
2018-07-16T11:30:08.696Z,100167.16
2018-07-16T11:31:14.376Z,100171.78
2018-07-16T11:32:29.430Z,100165.33
2018-07-16T11:33:35.339Z,100163.55
2018-07-16T11:34:40.641Z,100166.89
2018-07-16T11:35:46.053Z,100165.83
2018-07-16T11:36:51.935Z,100163.26
2018-07-16T11:37:57.632Z,100161.19
2018-07-16T11:39:03.374Z,100163.27
2018-07-16T11:40:09.091Z,100158.95
2018-07-16T11:41:14.760Z,100161.78
2018-07-16T11:42:20.485Z,100157.36
2018-07-16T11:43:26.217Z,100157.94
2018-07-16T11:44:31.881Z,100158.28
2018-07-16T11:45:37.626Z,100157.34
2018-07-16T11:46:43.332Z,100153.09
2018-07-16T11:47:49.028Z,100149.36
2018-07-16T11:48:54.720Z,100150.87
2018-07-16T11:50:00.394Z,100152.93
2018-07-16T11:51:06.115Z,100140.39
2018-07-16T11:52:11.913Z,100139.64
2018-07-16T11:53:17.800Z,100143.13
2018-07-16T11:54:23.492Z,100133.13
2018-07-16T11:55:29.179Z,100130.52
2018-07-16T11:56:34.867Z,100132.17
2018-07-16T11:57:40.618Z,100130.41
2018-07-16T11:58:46.331Z,100135.34
2018-07-16T11:59:52.314Z,100135.90
2018-07-16T12:00:58.041Z,100127.50
2018-07-16T12:02:03.722Z,100129.71
2018-07-16T12:03:09.429Z,100123.61
2018-07-16T12:04:15.112Z,100117.64
2018-07-16T12:05:20.786Z,100121.48
2018-07-16T12:06:26.543Z,100123.61
2018-07-16T12:07:32.235Z,100125.66
2018-07-16T12:08:38.004Z,100120.75
2018-07-16T12:09:43.741Z,100120.02
2018-07-16T12:10:49.552Z,100119.16
2018-07-16T12:11:55.416Z,100117.42
2018-07-16T12:13:01.110Z,100110.06
2018-07-16T12:14:06.479Z,100110.73
2018-07-16T12:15:12.285Z,100102.52
2018-07-16T12:16:18.004Z,100105.06
2018-07-16T12:17:23.724Z,100101.98
2018-07-16T12:18:29.396Z,100095.26
2018-07-16T12:19:35.124Z,100099.95
2018-07-16T12:20:40.855Z,100095.97
2018-07-16T12:21:46.581Z,100096.45
2018-07-16T12:22:52.275Z,100095.56
2018-07-16T12:23:58.019Z,100100.45
2018-07-16T12:25:03.756Z,100094.61
2018-07-16T12:26:12.389Z,100096.38
2018-07-16T12:27:18.071Z,100094.02
2018-07-16T12:28:23.796Z,100091.60
2018-07-16T12:29:29.495Z,100097.06
2018-07-16T12:30:35.189Z,100094.94
2018-07-16T12:31:40.886Z,100092.38
2018-07-16T12:32:46.640Z,100086.64
2018-07-16T12:33:52.706Z,100085.33
2018-07-16T12:34:58.029Z,100089.45
2018-07-16T12:36:03.787Z,100086.64
2018-07-16T12:37:09.511Z,100088.67